الصفحة الرئيسية
METAR-TAF:

METAR-TAF

مطار :

Nowra, أستراليا

دائرة عرض: 34-57S, خط طول: 150-32E, ارتفاع: 122 متر

مراقبة الطقس الحالي

تاريخ ووقت الإصدار 40 دقيقة قبل الساعة 02:00UTC
ريح 15 عقدة من الغرب
درجة الحرارة 26°درجة مئوية
الرطوبة 32%
ضغط 1022 hPa
الرؤية: 0300 متر
الغيوم لا تقل 1500 م ولا وجود لمزنة ركامية السحاب الأسود

METAR: YSNW 210200Z 28015KT CAVOK 26/08 Q1022 FM0200 MOD TURB BLW 5000FT TILL 0300

زمن: 12:40 (02:40 UTC)


TAF: مفقودة

أرصاد الطقس والتوقعات من أكثر من 4000 مطار (تقارير الطقس للمطار METAR والتنبؤ بالطقس بالمطارTAF).

المحطات المتاحة هي النقط الصفراء والحمراء على الخريطة.

حرك المؤشر فوق النقطة لمعرفة اسم المحطة.

ثم انقر لمعرفة أرصاد وتوقعات الطقس.

لتغيير الخارطة: اضغط على الأزرار الخضراء مع رمز الصليب الأسود للتكبير. على الزر الأخضر مع شرطة للتصغير، أو على الأسهم الخضراء للخرائط المجاورة.


METAR-TAF: